createdAt,value
2018-02-17T00:02:26.502Z,25.80
2018-02-17T00:04:54.831Z,26.33
2018-02-17T00:07:23.509Z,25.53
2018-02-17T00:09:52.831Z,26.63
2018-02-17T00:12:21.085Z,25.60
2018-02-17T00:14:50.109Z,24.80
2018-02-17T00:17:18.586Z,25.97
2018-02-17T00:19:46.844Z,23.10
2018-02-17T00:22:16.282Z,23.00
2018-02-17T00:24:45.306Z,21.57
2018-02-17T00:27:13.690Z,22.93
2018-02-17T00:29:43.338Z,23.87
2018-02-17T00:32:11.935Z,21.93
2018-02-17T00:34:42.946Z,23.43
2018-02-17T00:37:11.201Z,23.93
2018-02-17T00:39:39.446Z,25.67
2018-02-17T00:42:07.806Z,22.13
2018-02-17T00:44:36.066Z,23.37
2018-02-17T00:47:04.322Z,23.30
2018-02-17T00:49:32.750Z,24.70
2018-02-17T00:52:01.207Z,21.40
2018-02-17T00:54:29.469Z,22.10
2018-02-17T00:56:57.726Z,23.00
2018-02-17T00:59:27.227Z,24.37
2018-02-17T01:01:56.249Z,25.47
2018-02-17T01:04:24.570Z,26.10
2018-02-17T01:06:52.878Z,25.50
2018-02-17T01:09:21.122Z,24.17
2018-02-17T01:11:49.365Z,25.20
2018-02-17T01:14:17.862Z,25.20
2018-02-17T01:16:46.112Z,26.90
2018-02-17T01:19:14.357Z,25.47
2018-02-17T01:21:42.631Z,28.13
2018-02-17T01:24:10.997Z,27.13
2018-02-17T01:26:39.238Z,24.80
2018-02-17T01:29:07.512Z,27.27
2018-02-17T01:31:35.757Z,26.23
2018-02-17T01:34:04.018Z,24.70
2018-02-17T01:36:32.578Z,27.90
2018-02-17T01:39:00.822Z,28.97
2018-02-17T01:41:29.061Z,26.67
2018-02-17T01:43:59.318Z,27.90
2018-02-17T01:46:27.562Z,29.97
2018-02-17T01:48:56.036Z,30.03
2018-02-17T01:51:24.769Z,30.20
2018-02-17T01:53:53.010Z,27.33
2018-02-17T01:56:21.483Z,27.57
2018-02-17T01:58:52.377Z,28.60
2018-02-17T02:01:20.626Z,26.40
2018-02-17T02:03:50.007Z,25.07
2018-02-17T02:06:19.186Z,25.17
2018-02-17T02:08:47.426Z,24.60
2018-02-17T02:11:15.670Z,27.20
2018-02-17T02:13:44.168Z,24.83
2018-02-17T02:16:13.181Z,23.77
2018-02-17T02:18:41.504Z,23.37
2018-02-17T02:21:10.142Z,23.50
2018-02-17T02:23:38.686Z,24.50
2018-02-17T02:26:07.689Z,22.90
2018-02-17T02:28:35.981Z,22.33
2018-02-17T02:31:04.997Z,24.10
2018-02-17T02:33:33.318Z,23.90
2018-02-17T02:36:01.593Z,23.07
2018-02-17T02:38:29.841Z,22.50
2018-02-17T02:40:58.372Z,24.33
2018-02-17T02:43:26.914Z,20.73
2018-02-17T02:45:55.923Z,22.97
2018-02-17T02:48:24.170Z,19.93
2018-02-17T02:50:52.441Z,20.53
2018-02-17T02:53:21.004Z,18.17
2018-02-17T02:55:50.018Z,19.30
2018-02-17T02:58:18.293Z,19.17
2018-02-17T03:00:46.538Z,18.03
2018-02-17T03:03:14.802Z,17.73
2018-02-17T03:05:43.259Z,20.63
2018-02-17T03:08:11.578Z,20.70
2018-02-17T03:10:40.594Z,18.47
2018-02-17T03:13:08.877Z,20.50
2018-02-17T03:15:37.115Z,20.07
2018-02-17T03:18:05.360Z,20.00
2018-02-17T03:20:33.630Z,20.70
2018-02-17T03:23:02.214Z,16.20
2018-02-17T03:25:30.470Z,19.93
2018-02-17T03:27:58.970Z,17.77
2018-02-17T03:30:27.227Z,19.90
2018-02-17T03:32:55.470Z,17.20
2018-02-17T03:35:23.749Z,20.30
2018-02-17T03:37:52.758Z,21.43
2018-02-17T03:40:21.009Z,19.83
2018-02-17T03:42:49.501Z,20.37
2018-02-17T03:45:18.510Z,18.10
2018-02-17T03:47:47.521Z,20.00
2018-02-17T03:50:15.845Z,20.23
2018-02-17T03:52:44.221Z,15.93
2018-02-17T03:55:12.638Z,18.70
2018-02-17T03:57:41.673Z,16.47
2018-02-17T04:00:09.922Z,18.17
2018-02-17T04:02:38.217Z,19.93
2018-02-17T04:05:06.492Z,18.20
2018-02-17T04:07:34.738Z,18.90
2018-02-17T04:10:02.981Z,17.80
2018-02-17T04:12:31.642Z,19.03
2018-02-17T04:14:59.890Z,18.60
2018-02-17T04:17:28.142Z,19.80
2018-02-17T04:19:56.405Z,17.93
2018-02-17T04:22:24.900Z,18.60
2018-02-17T04:24:53.137Z,21.00
2018-02-17T04:27:21.413Z,19.47
2018-02-17T04:29:49.653Z,18.93
2018-02-17T04:32:17.903Z,20.83
2018-02-17T04:34:46.281Z,19.80
2018-02-17T04:37:14.525Z,21.00
2018-02-17T04:39:46.390Z,21.23
2018-02-17T04:42:23.534Z,21.53
2018-02-17T04:45:08.345Z,20.57
2018-02-17T04:47:45.262Z,20.57
2018-02-17T04:50:32.432Z,21.33
2018-02-17T04:53:17.586Z,19.57
2018-02-17T04:56:06.773Z,21.90
2018-02-17T04:58:40.870Z,23.00
2018-02-17T05:01:09.114Z,20.13
2018-02-17T05:03:57.222Z,23.07
2018-02-17T05:06:27.590Z,21.07
2018-02-17T05:09:10.834Z,18.87
2018-02-17T05:11:39.081Z,20.97
2018-02-17T05:14:24.037Z,20.80
2018-02-17T05:17:07.976Z,21.37
2018-02-17T05:19:56.089Z,20.97
2018-02-17T05:22:30.907Z,18.97
2018-02-17T05:25:05.006Z,21.10
2018-02-17T05:27:48.530Z,20.47
2018-02-17T05:30:17.289Z,20.07
2018-02-17T05:32:51.237Z,21.23
2018-02-17T05:35:22.307Z,21.57
2018-02-17T05:37:50.562Z,21.53
2018-02-17T05:40:21.511Z,20.67
2018-02-17T05:42:50.394Z,19.57
2018-02-17T05:45:18.691Z,19.90
2018-02-17T05:47:46.938Z,20.23
2018-02-17T05:50:16.814Z,17.87
2018-02-17T05:52:45.062Z,20.27
2018-02-17T05:55:13.305Z,18.67
2018-02-17T05:57:41.869Z,18.80
2018-02-17T06:00:10.118Z,17.80
2018-02-17T06:02:38.458Z,16.80
2018-02-17T06:05:06.970Z,16.70
2018-02-17T06:07:35.219Z,17.73
2018-02-17T06:10:03.457Z,16.90
2018-02-17T06:12:31.729Z,15.47
2018-02-17T06:14:59.977Z,15.60
2018-02-17T06:17:28.986Z,17.63
2018-02-17T06:19:57.256Z,16.07
2018-02-17T06:22:26.274Z,18.17
2018-02-17T06:24:54.518Z,17.27
2018-02-17T06:27:23.050Z,17.30
2018-02-17T06:29:51.313Z,18.53
2018-02-17T06:32:19.561Z,17.90
2018-02-17T06:34:47.829Z,17.17
2018-02-17T06:37:16.833Z,16.97
2018-02-17T06:39:45.858Z,17.90
2018-02-17T06:42:14.125Z,18.10
2018-02-17T06:44:42.374Z,21.87
2018-02-17T06:47:10.621Z,20.03
2018-02-17T06:49:39.261Z,20.17
2018-02-17T06:52:07.510Z,19.40
2018-02-17T06:54:35.754Z,21.07
2018-02-17T06:57:04.055Z,22.60
2018-02-17T06:59:33.020Z,20.87
2018-02-17T07:02:01.254Z,21.20
2018-02-17T07:04:29.522Z,21.67
2018-02-17T07:06:57.766Z,22.50
2018-02-17T07:09:26.428Z,21.00
2018-02-17T07:11:54.742Z,23.30
2018-02-17T07:14:23.910Z,22.07
2018-02-17T07:16:52.148Z,20.60
2018-02-17T07:19:20.867Z,21.77
2018-02-17T07:21:49.109Z,21.50
2018-02-17T07:24:17.362Z,21.90
2018-02-17T07:26:46.393Z,23.60
2018-02-17T07:29:14.638Z,21.30
2018-02-17T07:31:43.657Z,22.10
2018-02-17T07:34:12.361Z,21.47
2018-02-17T07:36:40.602Z,23.20
2018-02-17T07:39:08.849Z,21.13
2018-02-17T07:41:38.328Z,21.50
2018-02-17T07:44:06.721Z,21.03
2018-02-17T07:46:35.105Z,19.77
2018-02-17T07:49:03.378Z,21.60
2018-02-17T07:51:31.637Z,20.30
2018-02-17T07:53:59.950Z,21.33
2018-02-17T07:56:28.678Z,21.50
2018-02-17T07:58:56.929Z,20.80
2018-02-17T08:01:25.441Z,20.80
2018-02-17T08:03:53.714Z,19.47
2018-02-17T08:06:21.957Z,22.10
2018-02-17T08:08:50.209Z,21.20
2018-02-17T08:11:18.613Z,21.90
2018-02-17T08:13:47.621Z,20.50
2018-02-17T08:16:15.869Z,19.70
2018-02-17T08:18:44.418Z,19.87
2018-02-17T08:21:12.671Z,20.40
2018-02-17T08:23:40.909Z,21.10
2018-02-17T08:26:09.181Z,19.93
2018-02-17T08:28:37.426Z,20.57
2018-02-17T08:31:05.677Z,20.37
2018-02-17T08:33:34.058Z,20.00
2018-02-17T08:36:02.418Z,20.20
2018-02-17T08:38:31.430Z,22.40
2018-02-17T08:41:00.141Z,18.97
2018-02-17T08:43:28.389Z,22.43
2018-02-17T08:45:56.813Z,19.17
2018-02-17T08:48:25.086Z,19.67
2018-02-17T08:50:53.334Z,19.97
2018-02-17T08:53:21.581Z,19.77
2018-02-17T08:55:49.882Z,21.00
2018-02-17T08:58:18.126Z,20.23
2018-02-17T09:00:47.133Z,20.10
2018-02-17T09:03:16.478Z,19.40
2018-02-17T09:05:44.725Z,20.47
2018-02-17T09:08:12.966Z,20.10
2018-02-17T09:10:48.909Z,18.67
2018-02-17T09:13:17.166Z,19.70
2018-02-17T09:15:45.417Z,19.23
2018-02-17T09:18:13.685Z,20.97
2018-02-17T09:20:41.942Z,19.43
2018-02-17T09:23:10.238Z,19.63
2018-02-17T09:25:39.571Z,20.83
2018-02-17T09:28:07.821Z,19.20
2018-02-17T09:30:36.073Z,20.67
2018-02-17T09:33:04.346Z,22.60
2018-02-17T09:35:33.362Z,17.70
2018-02-17T09:38:01.605Z,19.90
2018-02-17T09:40:29.880Z,20.20
2018-02-17T09:42:58.894Z,20.20
2018-02-17T09:45:28.057Z,20.07
2018-02-17T09:47:56.548Z,19.10
2018-02-17T09:50:25.002Z,21.10
2018-02-17T09:52:53.256Z,20.70
2018-02-17T09:55:21.526Z,18.90
2018-02-17T09:57:49.774Z,20.17
2018-02-17T10:00:18.178Z,18.97
2018-02-17T10:02:46.778Z,20.30
2018-02-17T10:05:15.130Z,18.30
2018-02-17T10:07:44.143Z,17.80
2018-02-17T10:10:12.546Z,18.13
2018-02-17T10:12:40.803Z,19.27
2018-02-17T10:15:09.054Z,21.30
2018-02-17T10:17:38.269Z,18.20
2018-02-17T10:20:07.966Z,19.00
2018-02-17T10:22:36.219Z,19.00
2018-02-17T10:25:04.489Z,19.13
2018-02-17T10:27:32.734Z,17.60
2018-02-17T10:30:00.982Z,19.33
2018-02-17T10:32:30.186Z,19.20
2018-02-17T10:34:59.640Z,20.13
2018-02-17T10:37:28.030Z,17.20
2018-02-17T10:39:56.434Z,17.97
2018-02-17T10:42:25.446Z,18.90
2018-02-17T10:44:53.703Z,19.00
2018-02-17T10:47:22.193Z,18.50
2018-02-17T10:49:51.213Z,17.50
2018-02-17T10:52:19.458Z,20.20
2018-02-17T10:54:47.983Z,19.03
2018-02-17T10:57:16.301Z,18.97
2018-02-17T10:59:44.555Z,18.90
2018-02-17T11:02:12.830Z,18.27
2018-02-17T11:04:42.058Z,18.63
2018-02-17T11:07:10.330Z,18.03
2018-02-17T11:09:39.756Z,18.20
2018-02-17T11:12:08.790Z,19.70
2018-02-17T11:14:37.059Z,19.20
2018-02-17T11:17:05.853Z,17.63
2018-02-17T11:19:34.110Z,18.50
2018-02-17T11:22:02.538Z,18.90
2018-02-17T11:24:31.869Z,18.47
2018-02-17T11:27:00.885Z,16.80
2018-02-17T11:29:29.143Z,16.73
2018-02-17T11:31:57.410Z,17.97
2018-02-17T11:34:26.584Z,19.90
2018-02-17T11:36:54.834Z,17.37
2018-02-17T11:39:23.162Z,17.93
2018-02-17T11:41:51.418Z,19.27
2018-02-17T11:44:20.798Z,17.07
2018-02-17T11:46:49.070Z,16.73
2018-02-17T11:49:17.322Z,18.27
2018-02-17T11:51:45.585Z,17.83
2018-02-17T11:54:14.606Z,17.80
2018-02-17T11:56:42.850Z,18.13
2018-02-17T11:59:11.527Z,16.53
2018-02-17T12:01:40.081Z,17.00
2018-02-17T12:04:08.326Z,18.30
2018-02-17T12:06:36.658Z,17.07
2018-02-17T12:09:04.907Z,16.83
2018-02-17T12:11:33.156Z,17.27
2018-02-17T12:14:01.393Z,19.00
2018-02-17T12:16:29.986Z,16.07
2018-02-17T12:18:59.035Z,17.10
2018-02-17T12:21:27.274Z,17.40
2018-02-17T12:23:55.799Z,17.27
2018-02-17T12:26:24.116Z,16.07
2018-02-17T12:28:52.466Z,18.30
2018-02-17T12:31:20.743Z,16.37
2018-02-17T12:33:48.994Z,16.60
2018-02-17T12:36:17.715Z,16.50
2018-02-17T12:38:45.990Z,15.90
2018-02-17T12:41:14.379Z,16.90
2018-02-17T12:43:42.638Z,16.40
2018-02-17T12:46:11.216Z,17.60
2018-02-17T12:48:39.510Z,17.17
2018-02-17T12:51:08.806Z,17.37
2018-02-17T12:53:37.382Z,17.87
2018-02-17T12:56:05.622Z,16.67
2018-02-17T12:58:33.957Z,16.20
2018-02-17T13:01:02.354Z,17.80
2018-02-17T13:03:31.406Z,16.13
2018-02-17T13:05:59.651Z,17.73
2018-02-17T13:08:28.492Z,18.00
2018-02-17T13:10:56.741Z,16.80
2018-02-17T13:13:25.147Z,17.57
2018-02-17T13:15:53.551Z,16.63
2018-02-17T13:18:22.714Z,16.17
2018-02-17T13:20:50.946Z,17.83
2018-02-17T13:23:19.469Z,18.63
2018-02-17T13:25:49.076Z,17.80
2018-02-17T13:28:24.702Z,16.70
2018-02-17T13:30:53.216Z,17.43
2018-02-17T13:33:21.450Z,15.53
2018-02-17T13:35:49.760Z,17.00
2018-02-17T13:38:18.151Z,16.60
2018-02-17T13:40:47.454Z,16.47
2018-02-17T13:43:15.763Z,16.70
2018-02-17T13:45:44.214Z,18.03
2018-02-17T13:48:12.462Z,16.57
2018-02-17T13:50:40.789Z,17.10
2018-02-17T13:53:09.043Z,16.10
2018-02-17T13:55:37.297Z,15.77
2018-02-17T13:58:05.582Z,16.30
2018-02-17T14:00:33.870Z,15.20
2018-02-17T14:03:02.337Z,15.10
2018-02-17T14:05:30.585Z,14.67
2018-02-17T14:07:58.861Z,14.30
2018-02-17T14:10:27.114Z,15.07
2018-02-17T14:12:57.677Z,13.87
2018-02-17T14:15:26.023Z,15.10
2018-02-17T14:17:54.238Z,17.73
2018-02-17T14:20:22.519Z,15.47
2018-02-17T14:22:50.822Z,12.57
2018-02-17T14:25:19.069Z,14.47
2018-02-17T14:27:47.345Z,14.77
2018-02-17T14:30:16.122Z,14.90
2018-02-17T14:32:44.370Z,14.13
2018-02-17T14:35:13.454Z,13.93
2018-02-17T14:37:41.735Z,14.50
2018-02-17T14:40:10.765Z,14.20
2018-02-17T14:42:39.413Z,15.77
2018-02-17T14:45:08.446Z,15.87
2018-02-17T14:47:37.230Z,14.17
2018-02-17T14:50:06.874Z,14.50
2018-02-17T14:52:35.114Z,14.47
2018-02-17T14:55:03.438Z,14.60
2018-02-17T14:57:31.894Z,15.37
2018-02-17T15:00:00.214Z,14.63
2018-02-17T15:02:28.578Z,14.97
2018-02-17T15:04:57.044Z,14.87
2018-02-17T15:07:25.282Z,16.93
2018-02-17T15:09:53.733Z,14.87
2018-02-17T15:12:22.114Z,14.57
2018-02-17T15:14:52.318Z,14.17
2018-02-17T15:17:21.422Z,16.00
2018-02-17T15:19:50.085Z,15.70
2018-02-17T15:22:18.378Z,15.53
2018-02-17T15:24:50.747Z,15.80
2018-02-17T15:27:19.174Z,15.40
2018-02-17T15:29:47.534Z,15.33
2018-02-17T15:32:16.559Z,15.07
2018-02-17T15:34:44.829Z,14.33
2018-02-17T15:37:13.264Z,13.27
2018-02-17T15:39:41.831Z,13.30
2018-02-17T15:42:10.832Z,15.00
2018-02-17T15:44:39.460Z,14.40
2018-02-17T15:47:09.117Z,13.67
2018-02-17T15:49:37.774Z,14.20
2018-02-17T15:52:07.633Z,14.03
2018-02-17T15:54:36.932Z,14.17
2018-02-17T15:57:07.426Z,14.27
2018-02-17T15:59:35.735Z,13.27
2018-02-17T16:02:04.153Z,14.20
2018-02-17T16:04:32.934Z,15.40
2018-02-17T16:07:05.174Z,15.80
2018-02-17T16:09:34.193Z,13.90
2018-02-17T16:12:03.218Z,13.60
2018-02-17T16:14:31.537Z,14.67
2018-02-17T16:16:59.947Z,14.87
2018-02-17T16:19:28.966Z,14.23
2018-02-17T16:21:57.218Z,13.30
2018-02-17T16:24:25.745Z,14.87
2018-02-17T16:26:54.017Z,14.33
2018-02-17T16:29:22.438Z,15.10
2018-02-17T16:31:50.826Z,14.10
2018-02-17T16:34:19.190Z,14.83
2018-02-17T16:36:49.410Z,14.23
2018-02-17T16:39:17.817Z,15.20
2018-02-17T16:41:46.842Z,14.17
2018-02-17T16:44:18.621Z,16.13
2018-02-17T16:46:46.922Z,15.93
2018-02-17T16:49:15.302Z,17.40
2018-02-17T16:51:43.571Z,16.00
2018-02-17T16:54:11.818Z,14.40
2018-02-17T16:56:40.135Z,15.80
2018-02-17T16:59:08.538Z,14.60
2018-02-17T17:01:37.554Z,16.80
2018-02-17T17:04:06.712Z,17.90
2018-02-17T17:06:35.030Z,15.80
2018-02-17T17:09:03.282Z,18.90
2018-02-17T17:11:32.290Z,17.07
2018-02-17T17:14:01.345Z,16.47
2018-02-17T17:16:29.613Z,16.93
2018-02-17T17:18:57.846Z,16.13
2018-02-17T17:21:26.109Z,16.27
2018-02-17T17:23:55.122Z,15.70
2018-02-17T17:26:23.455Z,15.60
2018-02-17T17:28:55.405Z,16.30
2018-02-17T17:31:23.634Z,15.90
2018-02-17T17:33:54.721Z,14.83
2018-02-17T17:36:23.189Z,15.47
2018-02-17T17:38:51.429Z,14.63
2018-02-17T17:41:20.610Z,14.37
2018-02-17T17:43:48.886Z,15.63
2018-02-17T17:46:18.173Z,15.53
2018-02-17T17:48:46.903Z,15.90
2018-02-17T17:51:15.379Z,16.23
2018-02-17T17:53:44.830Z,15.93
2018-02-17T17:56:13.214Z,17.47
2018-02-17T17:58:41.535Z,17.17
2018-02-17T18:01:09.898Z,18.10
2018-02-17T18:03:38.138Z,17.20
2018-02-17T18:06:06.470Z,17.30
2018-02-17T18:08:35.477Z,17.70
2018-02-17T18:11:04.410Z,16.50
2018-02-17T18:13:33.415Z,15.63
2018-02-17T18:16:01.854Z,15.87
2018-02-17T18:18:30.161Z,15.27
2018-02-17T18:20:58.738Z,14.80
2018-02-17T18:23:27.126Z,17.20
2018-02-17T18:25:56.050Z,15.00
2018-02-17T18:28:25.554Z,15.43
2018-02-17T18:30:54.570Z,15.60
2018-02-17T18:33:22.830Z,16.23
2018-02-17T18:35:51.161Z,14.33
2018-02-17T18:38:21.923Z,15.30
2018-02-17T18:40:50.172Z,14.70
2018-02-17T18:43:18.452Z,14.30
2018-02-17T18:45:46.857Z,14.90
2018-02-17T18:48:15.147Z,14.63
2018-02-17T18:50:45.571Z,15.20
2018-02-17T18:53:14.210Z,12.90
2018-02-17T18:55:42.616Z,15.40
2018-02-17T18:58:11.078Z,16.07
2018-02-17T19:00:39.326Z,14.57
2018-02-17T19:03:07.581Z,13.80
2018-02-17T19:05:36.631Z,14.30
2018-02-17T19:08:04.873Z,13.97
2018-02-17T19:10:33.198Z,14.10
2018-02-17T19:13:01.721Z,12.33
2018-02-17T19:15:29.973Z,11.40
2018-02-17T19:17:58.220Z,13.70
2018-02-17T19:20:26.542Z,13.60
2018-02-17T19:22:54.794Z,14.20
2018-02-17T19:25:23.062Z,13.73
2018-02-17T19:27:51.323Z,12.20
2018-02-17T19:30:19.621Z,13.13
2018-02-17T19:32:47.862Z,12.47
2018-02-17T19:35:17.378Z,14.43
2018-02-17T19:37:45.674Z,12.63
2018-02-17T19:40:14.056Z,13.17
2018-02-17T19:42:42.506Z,13.90
2018-02-17T19:45:11.010Z,14.00
2018-02-17T19:47:39.249Z,13.97
2018-02-17T19:50:07.746Z,13.47
2018-02-17T19:52:35.993Z,12.80
2018-02-17T19:55:04.428Z,12.57
2018-02-17T19:57:32.734Z,14.63
2018-02-17T20:00:01.742Z,14.53
2018-02-17T20:02:30.759Z,13.17
2018-02-17T20:05:01.314Z,14.17
2018-02-17T20:07:29.562Z,12.90
2018-02-17T20:09:57.998Z,13.83
2018-02-17T20:12:26.385Z,13.23
2018-02-17T20:14:55.986Z,14.80
2018-02-17T20:17:24.362Z,12.90
2018-02-17T20:19:52.811Z,13.50
2018-02-17T20:22:21.119Z,14.93
2018-02-17T20:24:49.490Z,14.43
2018-02-17T20:27:18.106Z,14.50
2018-02-17T20:29:46.446Z,15.57
2018-02-17T20:32:15.630Z,15.43
2018-02-17T20:34:43.994Z,14.20
2018-02-17T20:37:12.314Z,13.87
2018-02-17T20:39:40.685Z,13.73
2018-02-17T20:42:09.098Z,14.70
2018-02-17T20:44:38.113Z,14.60
2018-02-17T20:47:06.449Z,14.73
2018-02-17T20:49:35.197Z,14.57
2018-02-17T20:52:03.497Z,16.00
2018-02-17T20:54:31.747Z,16.23
2018-02-17T20:57:00.010Z,14.90
2018-02-17T20:59:28.345Z,13.17
2018-02-17T21:01:56.735Z,15.03
2018-02-17T21:04:27.331Z,14.77
2018-02-17T21:06:55.621Z,14.00
2018-02-17T21:09:24.103Z,14.90
2018-02-17T21:11:52.467Z,14.93
2018-02-17T21:14:20.767Z,14.00
2018-02-17T21:16:49.929Z,15.53
2018-02-17T21:19:18.329Z,13.17
2018-02-17T21:21:48.671Z,14.10
2018-02-17T21:24:17.042Z,15.80
2018-02-17T21:26:45.462Z,14.77
2018-02-17T21:29:14.482Z,15.23
2018-02-17T21:31:42.797Z,14.80
2018-02-17T21:34:11.562Z,15.57
2018-02-17T21:36:39.814Z,16.87
2018-02-17T21:39:08.247Z,18.40
2018-02-17T21:41:36.698Z,17.23
2018-02-17T21:44:05.314Z,16.53
2018-02-17T21:46:33.695Z,17.60
2018-02-17T21:49:02.134Z,21.60
2018-02-17T21:51:31.382Z,18.47
2018-02-17T21:53:59.746Z,18.40
2018-02-17T21:56:28.077Z,17.53
2018-02-17T21:58:56.510Z,16.70
2018-02-17T22:01:24.885Z,18.30
2018-02-17T22:03:56.985Z,17.97
2018-02-17T22:06:26.013Z,18.70
2018-02-17T22:08:54.323Z,16.80
2018-02-17T22:11:22.599Z,19.40
2018-02-17T22:13:52.002Z,20.30
2018-02-17T22:16:20.255Z,19.70
2018-02-17T22:18:50.092Z,19.07
2018-02-17T22:21:18.370Z,19.50
2018-02-17T22:23:46.751Z,18.63
2018-02-17T22:26:15.166Z,20.53
2018-02-17T22:28:44.197Z,19.27
2018-02-17T22:31:12.506Z,20.10
2018-02-17T22:33:40.906Z,19.47
2018-02-17T22:36:09.939Z,22.50
2018-02-17T22:38:38.446Z,22.07
2018-02-17T22:41:06.781Z,21.83
2018-02-17T22:43:35.042Z,21.60
2018-02-17T22:46:04.065Z,27.13
2018-02-17T22:48:32.342Z,21.60
2018-02-17T22:51:00.586Z,21.03
2018-02-17T22:53:28.834Z,21.87
2018-02-17T22:55:57.384Z,19.37
2018-02-17T22:58:26.826Z,19.10
2018-02-17T23:00:55.201Z,22.60
2018-02-17T23:03:23.685Z,22.40
2018-02-17T23:05:51.930Z,21.70
2018-02-17T23:08:20.207Z,23.57
2018-02-17T23:10:48.474Z,23.60
2018-02-17T23:13:17.718Z,23.80
2018-02-17T23:15:45.972Z,28.17
2018-02-17T23:18:14.238Z,23.07
2018-02-17T23:20:43.466Z,26.20
2018-02-17T23:23:11.846Z,26.67
2018-02-17T23:25:41.206Z,24.30
2018-02-17T23:28:09.526Z,22.10
2018-02-17T23:30:37.910Z,24.43
2018-02-17T23:33:06.310Z,23.30
2018-02-17T23:35:35.318Z,24.33
2018-02-17T23:38:27.062Z,24.77
2018-02-17T23:40:55.386Z,24.87
2018-02-17T23:43:23.629Z,25.30
2018-02-17T23:45:52.222Z,25.30
2018-02-17T23:48:20.524Z,24.90
2018-02-17T23:50:49.834Z,24.83
2018-02-17T23:53:18.225Z,29.40
2018-02-17T23:55:47.245Z,29.47
2018-02-17T23:58:15.494Z,25.80
